sensor_id;sensor_type;location;lat;lon;timestamp;P1;durP1;ratioP1;P2;durP2;ratioP2
17251;SDS011;8742;51.716;8.790;2023-08-06T00:01:39;11.80;;;4.20;;
17251;SDS011;8742;51.716;8.790;2023-08-06T00:04:06;3.93;;;3.60;;
17251;SDS011;8742;51.716;8.790;2023-08-06T00:06:32;8.23;;;4.07;;
17251;SDS011;8742;51.716;8.790;2023-08-06T00:08:59;5.17;;;4.10;;
17251;SDS011;8742;51.716;8.790;2023-08-06T00:11:27;5.00;;;4.20;;
17251;SDS011;8742;51.716;8.790;2023-08-06T00:13:57;5.80;;;4.30;;
17251;SDS011;8742;51.716;8.790;2023-08-06T00:16:24;7.30;;;4.13;;
17251;SDS011;8742;51.716;8.790;2023-08-06T00:18:50;6.97;;;4.37;;
17251;SDS011;8742;51.716;8.790;2023-08-06T00:21:17;7.03;;;4.20;;
17251;SDS011;8742;51.716;8.790;2023-08-06T00:23:44;6.07;;;4.10;;
17251;SDS011;8742;51.716;8.790;2023-08-06T00:26:11;5.27;;;4.07;;
17251;SDS011;8742;51.716;8.790;2023-08-06T00:28:39;4.60;;;3.67;;
17251;SDS011;8742;51.716;8.790;2023-08-06T00:31:06;9.00;;;4.30;;
17251;SDS011;8742;51.716;8.790;2023-08-06T00:33:32;4.07;;;3.70;;
17251;SDS011;8742;51.716;8.790;2023-08-06T00:35:59;4.40;;;4.00;;
17251;SDS011;8742;51.716;8.790;2023-08-06T00:38:26;6.00;;;4.17;;
17251;SDS011;8742;51.716;8.790;2023-08-06T00:40:53;6.50;;;4.67;;
17251;SDS011;8742;51.716;8.790;2023-08-06T00:43:20;5.77;;;4.27;;
17251;SDS011;8742;51.716;8.790;2023-08-06T00:45:48;6.17;;;4.57;;
17251;SDS011;8742;51.716;8.790;2023-08-06T00:48:15;4.30;;;3.90;;
17251;SDS011;8742;51.716;8.790;2023-08-06T00:50:42;8.23;;;4.70;;
17251;SDS011;8742;51.716;8.790;2023-08-06T00:53:09;7.57;;;4.83;;
17251;SDS011;8742;51.716;8.790;2023-08-06T00:55:36;8.27;;;5.10;;
17251;SDS011;8742;51.716;8.790;2023-08-06T00:58:03;5.90;;;4.57;;
17251;SDS011;8742;51.716;8.790;2023-08-06T01:00:30;6.60;;;4.80;;
17251;SDS011;8742;51.716;8.790;2023-08-06T01:02:59;6.27;;;4.70;;
17251;SDS011;8742;51.716;8.790;2023-08-06T01:05:26;6.07;;;4.90;;
17251;SDS011;8742;51.716;8.790;2023-08-06T01:07:57;5.93;;;4.60;;
17251;SDS011;8742;51.716;8.790;2023-08-06T01:10:39;8.13;;;4.93;;
17251;SDS011;8742;51.716;8.790;2023-08-06T01:13:16;8.17;;;4.93;;
17251;SDS011;8742;51.716;8.790;2023-08-06T01:15:50;5.87;;;3.97;;
17251;SDS011;8742;51.716;8.790;2023-08-06T01:18:24;5.03;;;4.53;;
17251;SDS011;8742;51.716;8.790;2023-08-06T01:20:53;7.10;;;4.47;;
17251;SDS011;8742;51.716;8.790;2023-08-06T01:23:19;6.60;;;3.70;;
17251;SDS011;8742;51.716;8.790;2023-08-06T01:25:48;7.60;;;4.27;;
17251;SDS011;8742;51.716;8.790;2023-08-06T01:28:23;11.03;;;4.30;;
17251;SDS011;8742;51.716;8.790;2023-08-06T01:30:59;5.90;;;4.20;;
17251;SDS011;8742;51.716;8.790;2023-08-06T01:33:28;5.87;;;4.37;;
17251;SDS011;8742;51.716;8.790;2023-08-06T01:36:00;7.47;;;4.67;;
17251;SDS011;8742;51.716;8.790;2023-08-06T01:38:28;8.77;;;4.53;;
17251;SDS011;8742;51.716;8.790;2023-08-06T01:40:55;6.23;;;4.20;;
17251;SDS011;8742;51.716;8.790;2023-08-06T01:43:22;7.30;;;4.30;;
17251;SDS011;8742;51.716;8.790;2023-08-06T01:45:49;5.97;;;4.30;;
17251;SDS011;8742;51.716;8.790;2023-08-06T01:48:15;9.57;;;4.97;;
17251;SDS011;8742;51.716;8.790;2023-08-06T01:50:42;9.20;;;4.27;;
17251;SDS011;8742;51.716;8.790;2023-08-06T01:53:10;5.50;;;4.60;;
17251;SDS011;8742;51.716;8.790;2023-08-06T01:55:37;7.83;;;5.10;;
17251;SDS011;8742;51.716;8.790;2023-08-06T01:58:04;6.70;;;5.23;;
17251;SDS011;8742;51.716;8.790;2023-08-06T02:00:31;8.60;;;5.60;;
17251;SDS011;8742;51.716;8.790;2023-08-06T02:02:57;10.47;;;5.27;;
17251;SDS011;8742;51.716;8.790;2023-08-06T02:05:24;7.13;;;5.47;;
17251;SDS011;8742;51.716;8.790;2023-08-06T02:07:51;9.83;;;5.60;;
17251;SDS011;8742;51.716;8.790;2023-08-06T02:10:19;8.43;;;5.50;;
17251;SDS011;8742;51.716;8.790;2023-08-06T02:12:46;7.67;;;5.70;;
17251;SDS011;8742;51.716;8.790;2023-08-06T02:15:13;7.70;;;5.40;;
17251;SDS011;8742;51.716;8.790;2023-08-06T02:17:40;6.40;;;5.47;;
17251;SDS011;8742;51.716;8.790;2023-08-06T02:20:07;10.20;;;6.27;;
17251;SDS011;8742;51.716;8.790;2023-08-06T02:22:34;9.77;;;6.10;;
17251;SDS011;8742;51.716;8.790;2023-08-06T02:25:01;8.17;;;5.50;;
17251;SDS011;8742;51.716;8.790;2023-08-06T02:27:29;5.97;;;5.20;;
17251;SDS011;8742;51.716;8.790;2023-08-06T02:29:56;8.43;;;4.97;;
17251;SDS011;8742;51.716;8.790;2023-08-06T02:32:24;6.40;;;5.00;;
17251;SDS011;8742;51.716;8.790;2023-08-06T02:34:51;6.40;;;5.30;;
17251;SDS011;8742;51.716;8.790;2023-08-06T02:37:18;6.77;;;5.00;;
17251;SDS011;8742;51.716;8.790;2023-08-06T02:39:45;7.47;;;5.50;;
17251;SDS011;8742;51.716;8.790;2023-08-06T02:42:11;7.63;;;5.40;;
17251;SDS011;8742;51.716;8.790;2023-08-06T02:44:40;10.30;;;6.30;;
17251;SDS011;8742;51.716;8.790;2023-08-06T02:47:06;16.63;;;6.27;;
17251;SDS011;8742;51.716;8.790;2023-08-06T02:49:33;9.20;;;6.37;;
17251;SDS011;8742;51.716;8.790;2023-08-06T02:52:00;9.80;;;6.60;;
17251;SDS011;8742;51.716;8.790;2023-08-06T02:54:27;7.77;;;6.70;;
17251;SDS011;8742;51.716;8.790;2023-08-06T02:56:54;10.23;;;6.60;;
17251;SDS011;8742;51.716;8.790;2023-08-06T02:59:20;11.10;;;7.70;;
17251;SDS011;8742;51.716;8.790;2023-08-06T03:01:51;9.90;;;6.80;;
17251;SDS011;8742;51.716;8.790;2023-08-06T03:04:18;12.80;;;8.23;;
17251;SDS011;8742;51.716;8.790;2023-08-06T03:06:45;10.57;;;7.80;;
17251;SDS011;8742;51.716;8.790;2023-08-06T03:09:11;11.03;;;8.33;;
17251;SDS011;8742;51.716;8.790;2023-08-06T03:11:38;10.50;;;7.93;;
17251;SDS011;8742;51.716;8.790;2023-08-06T03:14:05;9.60;;;7.60;;
17251;SDS011;8742;51.716;8.790;2023-08-06T03:16:32;10.87;;;7.53;;
17251;SDS011;8742;51.716;8.790;2023-08-06T03:19:00;9.40;;;7.63;;
17251;SDS011;8742;51.716;8.790;2023-08-06T03:21:27;19.30;;;7.87;;
17251;SDS011;8742;51.716;8.790;2023-08-06T03:23:55;11.87;;;8.57;;
17251;SDS011;8742;51.716;8.790;2023-08-06T03:26:22;13.27;;;9.27;;
17251;SDS011;8742;51.716;8.790;2023-08-06T03:28:49;10.77;;;8.33;;
17251;SDS011;8742;51.716;8.790;2023-08-06T03:31:16;12.03;;;8.67;;
17251;SDS011;8742;51.716;8.790;2023-08-06T03:33:43;13.47;;;9.33;;
17251;SDS011;8742;51.716;8.790;2023-08-06T03:36:11;13.90;;;9.43;;
17251;SDS011;8742;51.716;8.790;2023-08-06T03:38:38;14.47;;;9.37;;
17251;SDS011;8742;51.716;8.790;2023-08-06T03:41:04;13.97;;;9.60;;
17251;SDS011;8742;51.716;8.790;2023-08-06T03:43:31;12.40;;;9.27;;
17251;SDS011;8742;51.716;8.790;2023-08-06T03:45:58;11.17;;;8.47;;
17251;SDS011;8742;51.716;8.790;2023-08-06T03:48:25;12.17;;;9.03;;
17251;SDS011;8742;51.716;8.790;2023-08-06T03:50:52;12.17;;;8.80;;
17251;SDS011;8742;51.716;8.790;2023-08-06T03:53:20;11.03;;;8.20;;
17251;SDS011;8742;51.716;8.790;2023-08-06T03:55:47;10.67;;;8.17;;
17251;SDS011;8742;51.716;8.790;2023-08-06T03:58:14;12.07;;;8.77;;
17251;SDS011;8742;51.716;8.790;2023-08-06T04:00:41;11.57;;;8.77;;
17251;SDS011;8742;51.716;8.790;2023-08-06T04:03:07;10.93;;;9.03;;
17251;SDS011;8742;51.716;8.790;2023-08-06T04:05:34;9.97;;;8.23;;
17251;SDS011;8742;51.716;8.790;2023-08-06T04:08:01;10.93;;;8.17;;
17251;SDS011;8742;51.716;8.790;2023-08-06T04:10:29;14.13;;;8.47;;
17251;SDS011;8742;51.716;8.790;2023-08-06T04:12:56;11.13;;;8.47;;
17251;SDS011;8742;51.716;8.790;2023-08-06T04:15:23;12.60;;;9.07;;
17251;SDS011;8742;51.716;8.790;2023-08-06T04:17:50;12.13;;;8.87;;
17251;SDS011;8742;51.716;8.790;2023-08-06T04:20:16;13.53;;;9.20;;
17251;SDS011;8742;51.716;8.790;2023-08-06T04:22:43;11.40;;;8.37;;
17251;SDS011;8742;51.716;8.790;2023-08-06T04:25:10;15.17;;;8.57;;
17251;SDS011;8742;51.716;8.790;2023-08-06T04:27:38;12.13;;;8.97;;
17251;SDS011;8742;51.716;8.790;2023-08-06T04:30:07;11.47;;;8.40;;
17251;SDS011;8742;51.716;8.790;2023-08-06T04:32:34;11.73;;;9.30;;
17251;SDS011;8742;51.716;8.790;2023-08-06T04:35:01;10.60;;;8.47;;
17251;SDS011;8742;51.716;8.790;2023-08-06T04:37:28;10.67;;;8.53;;
17251;SDS011;8742;51.716;8.790;2023-08-06T04:39:54;14.87;;;9.23;;
17251;SDS011;8742;51.716;8.790;2023-08-06T04:42:21;10.17;;;8.03;;
17251;SDS011;8742;51.716;8.790;2023-08-06T04:44:50;11.37;;;7.83;;
17251;SDS011;8742;51.716;8.790;2023-08-06T04:47:17;10.40;;;8.13;;
17251;SDS011;8742;51.716;8.790;2023-08-06T04:49:43;8.83;;;7.53;;
17251;SDS011;8742;51.716;8.790;2023-08-06T04:52:10;11.07;;;7.07;;
17251;SDS011;8742;51.716;8.790;2023-08-06T04:54:37;11.03;;;7.33;;
17251;SDS011;8742;51.716;8.790;2023-08-06T04:57:04;13.57;;;6.57;;
17251;SDS011;8742;51.716;8.790;2023-08-06T04:59:31;11.90;;;7.03;;
17251;SDS011;8742;51.716;8.790;2023-08-06T05:01:59;10.13;;;7.23;;
17251;SDS011;8742;51.716;8.790;2023-08-06T05:04:26;9.17;;;7.10;;
17251;SDS011;8742;51.716;8.790;2023-08-06T05:06:53;8.97;;;6.90;;
17251;SDS011;8742;51.716;8.790;2023-08-06T05:09:20;11.17;;;7.43;;
17251;SDS011;8742;51.716;8.790;2023-08-06T05:11:47;8.37;;;6.57;;
17251;SDS011;8742;51.716;8.790;2023-08-06T05:14:15;10.13;;;7.07;;
17251;SDS011;8742;51.716;8.790;2023-08-06T05:16:42;12.67;;;6.80;;
17251;SDS011;8742;51.716;8.790;2023-08-06T05:19:10;6.77;;;5.93;;
17251;SDS011;8742;51.716;8.790;2023-08-06T05:21:36;9.40;;;6.80;;
17251;SDS011;8742;51.716;8.790;2023-08-06T05:24:03;10.40;;;6.73;;
17251;SDS011;8742;51.716;8.790;2023-08-06T05:26:30;7.73;;;6.20;;
17251;SDS011;8742;51.716;8.790;2023-08-06T05:28:57;6.43;;;5.73;;
17251;SDS011;8742;51.716;8.790;2023-08-06T05:31:24;8.50;;;6.00;;
17251;SDS011;8742;51.716;8.790;2023-08-06T05:33:50;9.63;;;5.67;;
17251;SDS011;8742;51.716;8.790;2023-08-06T05:36:19;11.20;;;5.80;;
17251;SDS011;8742;51.716;8.790;2023-08-06T05:38:46;7.17;;;5.40;;
17251;SDS011;8742;51.716;8.790;2023-08-06T05:41:13;7.57;;;5.10;;
17251;SDS011;8742;51.716;8.790;2023-08-06T05:43:40;9.60;;;5.37;;
17251;SDS011;8742;51.716;8.790;2023-08-06T05:46:07;7.03;;;4.83;;
17251;SDS011;8742;51.716;8.790;2023-08-06T05:48:33;6.10;;;4.97;;
17251;SDS011;8742;51.716;8.790;2023-08-06T05:51:00;6.37;;;5.10;;
17251;SDS011;8742;51.716;8.790;2023-08-06T05:53:28;7.30;;;5.33;;
17251;SDS011;8742;51.716;8.790;2023-08-06T05:55:55;7.57;;;4.80;;
17251;SDS011;8742;51.716;8.790;2023-08-06T05:58:22;6.10;;;4.53;;
17251;SDS011;8742;51.716;8.790;2023-08-06T06:00:54;6.77;;;4.50;;
17251;SDS011;8742;51.716;8.790;2023-08-06T06:03:21;5.73;;;4.43;;
17251;SDS011;8742;51.716;8.790;2023-08-06T06:05:47;5.03;;;4.50;;
17251;SDS011;8742;51.716;8.790;2023-08-06T06:08:16;6.53;;;4.70;;
17251;SDS011;8742;51.716;8.790;2023-08-06T06:10:45;7.10;;;5.00;;
17251;SDS011;8742;51.716;8.790;2023-08-06T06:13:11;5.33;;;4.60;;
17251;SDS011;8742;51.716;8.790;2023-08-06T06:15:38;8.07;;;4.83;;
17251;SDS011;8742;51.716;8.790;2023-08-06T06:18:05;8.27;;;4.93;;
17251;SDS011;8742;51.716;8.790;2023-08-06T06:20:32;9.23;;;3.93;;
17251;SDS011;8742;51.716;8.790;2023-08-06T06:22:59;7.83;;;3.90;;
17251;SDS011;8742;51.716;8.790;2023-08-06T06:25:25;4.73;;;3.87;;
17251;SDS011;8742;51.716;8.790;2023-08-06T06:27:54;7.27;;;4.53;;
17251;SDS011;8742;51.716;8.790;2023-08-06T06:30:20;7.00;;;4.23;;
17251;SDS011;8742;51.716;8.790;2023-08-06T06:32:47;9.50;;;4.90;;
17251;SDS011;8742;51.716;8.790;2023-08-06T06:35:14;7.10;;;4.80;;
17251;SDS011;8742;51.716;8.790;2023-08-06T06:37:41;5.67;;;4.30;;
17251;SDS011;8742;51.716;8.790;2023-08-06T06:40:08;6.00;;;4.10;;
17251;SDS011;8742;51.716;8.790;2023-08-06T06:42:36;5.13;;;4.10;;
17251;SDS011;8742;51.716;8.790;2023-08-06T06:45:04;5.73;;;4.10;;
17251;SDS011;8742;51.716;8.790;2023-08-06T06:47:32;9.70;;;4.30;;
17251;SDS011;8742;51.716;8.790;2023-08-06T06:49:59;6.23;;;4.13;;
17251;SDS011;8742;51.716;8.790;2023-08-06T06:52:25;6.40;;;4.10;;
17251;SDS011;8742;51.716;8.790;2023-08-06T06:54:52;8.23;;;4.23;;
17251;SDS011;8742;51.716;8.790;2023-08-06T06:57:22;8.30;;;4.10;;
17251;SDS011;8742;51.716;8.790;2023-08-06T06:59:49;7.27;;;4.13;;
17251;SDS011;8742;51.716;8.790;2023-08-06T07:02:17;5.30;;;3.93;;
17251;SDS011;8742;51.716;8.790;2023-08-06T07:04:44;4.60;;;3.50;;
17251;SDS011;8742;51.716;8.790;2023-08-06T07:07:11;5.43;;;3.40;;
17251;SDS011;8742;51.716;8.790;2023-08-06T07:09:37;5.30;;;3.47;;
17251;SDS011;8742;51.716;8.790;2023-08-06T07:12:05;4.27;;;3.20;;
17251;SDS011;8742;51.716;8.790;2023-08-06T07:14:32;5.23;;;3.20;;
17251;SDS011;8742;51.716;8.790;2023-08-06T07:16:59;3.33;;;3.00;;
17251;SDS011;8742;51.716;8.790;2023-08-06T07:19:27;4.23;;;3.00;;
17251;SDS011;8742;51.716;8.790;2023-08-06T07:21:54;2.73;;;2.53;;
17251;SDS011;8742;51.716;8.790;2023-08-06T07:24:21;2.73;;;2.37;;
17251;SDS011;8742;51.716;8.790;2023-08-06T07:26:48;3.70;;;2.43;;
17251;SDS011;8742;51.716;8.790;2023-08-06T07:29:15;4.03;;;2.50;;
17251;SDS011;8742;51.716;8.790;2023-08-06T07:31:46;3.73;;;2.90;;
17251;SDS011;8742;51.716;8.790;2023-08-06T07:34:13;4.40;;;2.50;;
17251;SDS011;8742;51.716;8.790;2023-08-06T07:36:41;3.67;;;2.70;;
17251;SDS011;8742;51.716;8.790;2023-08-06T07:39:10;2.80;;;2.60;;
17251;SDS011;8742;51.716;8.790;2023-08-06T07:41:37;3.83;;;2.53;;
17251;SDS011;8742;51.716;8.790;2023-08-06T07:44:04;2.93;;;2.60;;
17251;SDS011;8742;51.716;8.790;2023-08-06T07:46:31;2.60;;;2.40;;
17251;SDS011;8742;51.716;8.790;2023-08-06T07:49:01;3.97;;;2.80;;
17251;SDS011;8742;51.716;8.790;2023-08-06T07:51:28;2.77;;;2.33;;
17251;SDS011;8742;51.716;8.790;2023-08-06T07:53:56;3.93;;;2.20;;
17251;SDS011;8742;51.716;8.790;2023-08-06T07:56:23;2.70;;;2.30;;
17251;SDS011;8742;51.716;8.790;2023-08-06T07:58:50;4.43;;;2.77;;
17251;SDS011;8742;51.716;8.790;2023-08-06T08:01:17;2.93;;;2.40;;
17251;SDS011;8742;51.716;8.790;2023-08-06T08:03:44;2.67;;;2.43;;
17251;SDS011;8742;51.716;8.790;2023-08-06T08:06:11;4.13;;;2.13;;
17251;SDS011;8742;51.716;8.790;2023-08-06T08:08:38;3.00;;;2.70;;
17251;SDS011;8742;51.716;8.790;2023-08-06T08:11:06;2.60;;;2.40;;
17251;SDS011;8742;51.716;8.790;2023-08-06T08:13:33;4.27;;;2.13;;
17251;SDS011;8742;51.716;8.790;2023-08-06T08:16:00;2.83;;;1.80;;
17251;SDS011;8742;51.716;8.790;2023-08-06T08:18:28;3.07;;;2.30;;
17251;SDS011;8742;51.716;8.790;2023-08-06T08:20:56;4.53;;;2.10;;
17251;SDS011;8742;51.716;8.790;2023-08-06T08:23:23;2.50;;;2.30;;
17251;SDS011;8742;51.716;8.790;2023-08-06T08:25:50;2.57;;;2.23;;
17251;SDS011;8742;51.716;8.790;2023-08-06T08:28:18;5.63;;;2.17;;
17251;SDS011;8742;51.716;8.790;2023-08-06T08:30:45;4.63;;;1.70;;
17251;SDS011;8742;51.716;8.790;2023-08-06T08:33:12;1.90;;;1.80;;
17251;SDS011;8742;51.716;8.790;2023-08-06T08:35:39;3.67;;;2.00;;
17251;SDS011;8742;51.716;8.790;2023-08-06T08:38:06;4.40;;;1.80;;
17251;SDS011;8742;51.716;8.790;2023-08-06T08:40:33;2.03;;;1.90;;
17251;SDS011;8742;51.716;8.790;2023-08-06T08:43:07;2.07;;;1.90;;
17251;SDS011;8742;51.716;8.790;2023-08-06T08:45:36;1.90;;;1.57;;
17251;SDS011;8742;51.716;8.790;2023-08-06T08:48:05;1.87;;;1.77;;
17251;SDS011;8742;51.716;8.790;2023-08-06T08:50:33;1.83;;;1.70;;
17251;SDS011;8742;51.716;8.790;2023-08-06T08:53:00;2.33;;;1.63;;
17251;SDS011;8742;51.716;8.790;2023-08-06T08:55:27;2.20;;;1.23;;
17251;SDS011;8742;51.716;8.790;2023-08-06T08:57:54;1.43;;;1.27;;
17251;SDS011;8742;51.716;8.790;2023-08-06T09:00:21;1.50;;;1.40;;
17251;SDS011;8742;51.716;8.790;2023-08-06T09:02:49;2.13;;;1.50;;
17251;SDS011;8742;51.716;8.790;2023-08-06T09:05:18;2.20;;;1.52;;
17251;SDS011;8742;51.716;8.790;2023-08-06T09:07:47;8.05;;;1.30;;
17251;SDS011;8742;51.716;8.790;2023-08-06T09:10:16;3.92;;;1.30;;
17251;SDS011;8742;51.716;8.790;2023-08-06T09:12:44;2.22;;;1.60;;
17251;SDS011;8742;51.716;8.790;2023-08-06T09:15:11;2.65;;;1.60;;
17251;SDS011;8742;51.716;8.790;2023-08-06T09:17:38;2.53;;;1.35;;
17251;SDS011;8742;51.716;8.790;2023-08-06T09:20:12;1.30;;;1.20;;
17251;SDS011;8742;51.716;8.790;2023-08-06T09:22:39;2.58;;;1.45;;
17251;SDS011;8742;51.716;8.790;2023-08-06T09:25:06;1.42;;;1.13;;
17251;SDS011;8742;51.716;8.790;2023-08-06T09:27:35;1.40;;;1.25;;
17251;SDS011;8742;51.716;8.790;2023-08-06T09:30:05;2.78;;;1.40;;
17251;SDS011;8742;51.716;8.790;2023-08-06T09:32:44;1.33;;;1.23;;
17251;SDS011;8742;51.716;8.790;2023-08-06T09:35:16;1.50;;;1.40;;
17251;SDS011;8742;51.716;8.790;2023-08-06T09:37:43;1.77;;;1.65;;
17251;SDS011;8742;51.716;8.790;2023-08-06T09:40:26;1.70;;;1.60;;
17251;SDS011;8742;51.716;8.790;2023-08-06T09:42:54;1.58;;;1.17;;
17251;SDS011;8742;51.716;8.790;2023-08-06T09:45:22;1.63;;;1.27;;
17251;SDS011;8742;51.716;8.790;2023-08-06T09:47:49;1.80;;;1.50;;
17251;SDS011;8742;51.716;8.790;2023-08-06T09:50:18;2.67;;;1.45;;
17251;SDS011;8742;51.716;8.790;2023-08-06T09:52:45;3.75;;;1.40;;
17251;SDS011;8742;51.716;8.790;2023-08-06T09:55:13;2.45;;;1.40;;
17251;SDS011;8742;51.716;8.790;2023-08-06T09:57:41;1.75;;;1.42;;
17251;SDS011;8742;51.716;8.790;2023-08-06T10:00:10;1.20;;;1.10;;
17251;SDS011;8742;51.716;8.790;2023-08-06T10:02:38;2.88;;;1.77;;
17251;SDS011;8742;51.716;8.790;2023-08-06T10:05:06;5.25;;;1.70;;
17251;SDS011;8742;51.716;8.790;2023-08-06T10:07:37;2.30;;;1.60;;
17251;SDS011;8742;51.716;8.790;2023-08-06T10:10:05;3.05;;;1.48;;
17251;SDS011;8742;51.716;8.790;2023-08-06T10:12:34;2.03;;;1.83;;
17251;SDS011;8742;51.716;8.790;2023-08-06T10:15:04;2.20;;;2.00;;
17251;SDS011;8742;51.716;8.790;2023-08-06T10:17:35;3.10;;;2.00;;
17251;SDS011;8742;51.716;8.790;2023-08-06T10:20:03;2.15;;;1.90;;
17251;SDS011;8742;51.716;8.790;2023-08-06T10:22:33;2.15;;;1.95;;
17251;SDS011;8742;51.716;8.790;2023-08-06T10:25:03;3.03;;;2.20;;
17251;SDS011;8742;51.716;8.790;2023-08-06T10:27:32;3.70;;;1.93;;
17251;SDS011;8742;51.716;8.790;2023-08-06T10:32:47;2.60;;;2.33;;
17251;SDS011;8742;51.716;8.790;2023-08-06T10:35:27;2.57;;;2.17;;
17251;SDS011;8742;51.716;8.790;2023-08-06T11:00:37;3.57;;;2.00;;
17251;SDS011;8742;51.716;8.790;2023-08-06T11:03:04;1.87;;;1.77;;
17251;SDS011;8742;51.716;8.790;2023-08-06T11:05:32;3.10;;;1.93;;
17251;SDS011;8742;51.716;8.790;2023-08-06T11:07:59;2.10;;;2.00;;
17251;SDS011;8742;51.716;8.790;2023-08-06T11:10:26;4.38;;;2.00;;
17251;SDS011;8742;51.716;8.790;2023-08-06T11:12:53;2.60;;;2.00;;
17251;SDS011;8742;51.716;8.790;2023-08-06T11:15:20;2.67;;;2.00;;
17251;SDS011;8742;51.716;8.790;2023-08-06T11:17:51;2.30;;;1.77;;
17251;SDS011;8742;51.716;8.790;2023-08-06T11:20:18;2.00;;;1.90;;
17251;SDS011;8742;51.716;8.790;2023-08-06T11:22:47;1.97;;;1.73;;
17251;SDS011;8742;51.716;8.790;2023-08-06T11:25:14;2.47;;;1.90;;
17251;SDS011;8742;51.716;8.790;2023-08-06T11:27:41;2.70;;;1.80;;
17251;SDS011;8742;51.716;8.790;2023-08-06T11:30:10;2.00;;;1.67;;
17251;SDS011;8742;51.716;8.790;2023-08-06T11:32:46;3.30;;;1.93;;
17251;SDS011;8742;51.716;8.790;2023-08-06T11:35:15;5.07;;;1.80;;
17251;SDS011;8742;51.716;8.790;2023-08-06T11:37:43;2.50;;;1.90;;
17251;SDS011;8742;51.716;8.790;2023-08-06T11:40:11;2.00;;;1.80;;
17251;SDS011;8742;51.716;8.790;2023-08-06T11:42:40;3.13;;;2.10;;
17251;SDS011;8742;51.716;8.790;2023-08-06T11:45:08;3.93;;;1.90;;
17251;SDS011;8742;51.716;8.790;2023-08-06T11:47:37;3.03;;;2.10;;
17251;SDS011;8742;51.716;8.790;2023-08-06T11:50:05;2.50;;;1.80;;
17251;SDS011;8742;51.716;8.790;2023-08-06T11:52:34;4.00;;;2.10;;
17251;SDS011;8742;51.716;8.790;2023-08-06T11:55:05;2.23;;;2.00;;
17251;SDS011;8742;51.716;8.790;2023-08-06T11:57:35;2.90;;;2.30;;
17251;SDS011;8742;51.716;8.790;2023-08-06T12:00:05;5.87;;;2.30;;
17251;SDS011;8742;51.716;8.790;2023-08-06T12:02:34;5.50;;;2.07;;
17251;SDS011;8742;51.716;8.790;2023-08-06T12:05:03;2.80;;;2.23;;
17251;SDS011;8742;51.716;8.790;2023-08-06T12:07:31;3.47;;;2.30;;
17251;SDS011;8742;51.716;8.790;2023-08-06T12:10:03;3.63;;;2.33;;
17251;SDS011;8742;51.716;8.790;2023-08-06T12:12:30;3.37;;;2.43;;
17251;SDS011;8742;51.716;8.790;2023-08-06T12:14:57;4.37;;;2.30;;
17251;SDS011;8742;51.716;8.790;2023-08-06T12:17:25;2.60;;;2.40;;
17251;SDS011;8742;51.716;8.790;2023-08-06T12:19:55;3.47;;;2.17;;
17251;SDS011;8742;51.716;8.790;2023-08-06T12:22:22;3.10;;;2.30;;
17251;SDS011;8742;51.716;8.790;2023-08-06T12:24:50;3.33;;;2.50;;
17251;SDS011;8742;51.716;8.790;2023-08-06T12:27:17;3.23;;;2.20;;
17251;SDS011;8742;51.716;8.790;2023-08-06T12:29:44;3.03;;;2.70;;
17251;SDS011;8742;51.716;8.790;2023-08-06T12:32:12;4.37;;;2.70;;
17251;SDS011;8742;51.716;8.790;2023-08-06T12:34:39;2.30;;;2.10;;
17251;SDS011;8742;51.716;8.790;2023-08-06T12:37:06;5.70;;;2.60;;
17251;SDS011;8742;51.716;8.790;2023-08-06T12:39:33;2.57;;;2.20;;
17251;SDS011;8742;51.716;8.790;2023-08-06T12:42:02;4.53;;;2.40;;
17251;SDS011;8742;51.716;8.790;2023-08-06T12:44:30;2.33;;;2.13;;
17251;SDS011;8742;51.716;8.790;2023-08-06T12:46:57;5.27;;;2.43;;
17251;SDS011;8742;51.716;8.790;2023-08-06T12:49:24;2.10;;;2.00;;
17251;SDS011;8742;51.716;8.790;2023-08-06T12:51:52;4.03;;;2.03;;
17251;SDS011;8742;51.716;8.790;2023-08-06T12:54:20;2.60;;;2.08;;
17251;SDS011;8742;51.716;8.790;2023-08-06T12:56:47;2.30;;;2.10;;
17251;SDS011;8742;51.716;8.790;2023-08-06T12:59:16;3.88;;;1.80;;
17251;SDS011;8742;51.716;8.790;2023-08-06T13:01:43;2.25;;;1.70;;
17251;SDS011;8742;51.716;8.790;2023-08-06T13:04:10;3.58;;;2.22;;
17251;SDS011;8742;51.716;8.790;2023-08-06T13:06:37;7.53;;;1.98;;
17251;SDS011;8742;51.716;8.790;2023-08-06T13:09:05;2.13;;;1.63;;
17251;SDS011;8742;51.716;8.790;2023-08-06T13:11:33;2.72;;;1.80;;
17251;SDS011;8742;51.716;8.790;2023-08-06T13:14:03;2.42;;;1.45;;
17251;SDS011;8742;51.716;8.790;2023-08-06T13:16:32;3.15;;;1.55;;
17251;SDS011;8742;51.716;8.790;2023-08-06T13:18:59;2.13;;;1.90;;
17251;SDS011;8742;51.716;8.790;2023-08-06T13:21:31;2.00;;;1.77;;
17251;SDS011;8742;51.716;8.790;2023-08-06T13:24:00;1.88;;;1.55;;
17251;SDS011;8742;51.716;8.790;2023-08-06T13:26:27;1.42;;;1.33;;
17251;SDS011;8742;51.716;8.790;2023-08-06T13:28:56;2.33;;;1.55;;
17251;SDS011;8742;51.716;8.790;2023-08-06T13:31:23;1.63;;;1.52;;
17251;SDS011;8742;51.716;8.790;2023-08-06T13:33:51;2.20;;;1.50;;
17251;SDS011;8742;51.716;8.790;2023-08-06T13:36:23;1.65;;;1.55;;
17251;SDS011;8742;51.716;8.790;2023-08-06T13:38:50;1.60;;;1.33;;
17251;SDS011;8742;51.716;8.790;2023-08-06T13:41:16;2.38;;;1.38;;
17251;SDS011;8742;51.716;8.790;2023-08-06T13:43:43;1.52;;;1.25;;
17251;SDS011;8742;51.716;8.790;2023-08-06T13:46:10;1.60;;;1.30;;
17251;SDS011;8742;51.716;8.790;2023-08-06T13:48:41;3.03;;;1.40;;
17251;SDS011;8742;51.716;8.790;2023-08-06T13:51:09;1.95;;;1.35;;
17251;SDS011;8742;51.716;8.790;2023-08-06T13:53:36;1.65;;;1.50;;
17251;SDS011;8742;51.716;8.790;2023-08-06T13:56:04;1.70;;;1.60;;
17251;SDS011;8742;51.716;8.790;2023-08-06T13:58:31;3.10;;;1.60;;
17251;SDS011;8742;51.716;8.790;2023-08-06T14:00:58;1.40;;;1.30;;
17251;SDS011;8742;51.716;8.790;2023-08-06T14:03:25;1.98;;;1.30;;
17251;SDS011;8742;51.716;8.790;2023-08-06T14:05:52;1.45;;;1.35;;
17251;SDS011;8742;51.716;8.790;2023-08-06T14:08:22;5.22;;;2.10;;
17251;SDS011;8742;51.716;8.790;2023-08-06T14:10:50;3.30;;;2.03;;
17251;SDS011;8742;51.716;8.790;2023-08-06T14:13:17;2.63;;;1.65;;
17251;SDS011;8742;51.716;8.790;2023-08-06T14:15:44;2.30;;;1.45;;
17251;SDS011;8742;51.716;8.790;2023-08-06T14:18:12;1.58;;;1.48;;
17251;SDS011;8742;51.716;8.790;2023-08-06T14:20:38;1.42;;;1.30;;
17251;SDS011;8742;51.716;8.790;2023-08-06T14:23:05;3.90;;;1.25;;
17251;SDS011;8742;51.716;8.790;2023-08-06T14:25:34;1.47;;;1.30;;
17251;SDS011;8742;51.716;8.790;2023-08-06T14:28:01;2.73;;;1.40;;
17251;SDS011;8742;51.716;8.790;2023-08-06T14:30:27;2.83;;;1.60;;
17251;SDS011;8742;51.716;8.790;2023-08-06T14:32:54;1.70;;;1.60;;
17251;SDS011;8742;51.716;8.790;2023-08-06T14:35:21;2.53;;;1.60;;
17251;SDS011;8742;51.716;8.790;2023-08-06T14:38:05;4.37;;;2.03;;
17251;SDS011;8742;51.716;8.790;2023-08-06T14:40:38;2.67;;;1.90;;
17251;SDS011;8742;51.716;8.790;2023-08-06T14:43:05;4.63;;;2.23;;
17251;SDS011;8742;51.716;8.790;2023-08-06T14:45:32;3.17;;;2.40;;
17251;SDS011;8742;51.716;8.790;2023-08-06T14:48:00;3.93;;;2.50;;
17251;SDS011;8742;51.716;8.790;2023-08-06T14:50:27;2.33;;;2.10;;
17251;SDS011;8742;51.716;8.790;2023-08-06T14:52:53;4.30;;;2.20;;
17251;SDS011;8742;51.716;8.790;2023-08-06T14:55:24;4.97;;;3.00;;
17251;SDS011;8742;51.716;8.790;2023-08-06T14:57:53;2.40;;;2.20;;
17251;SDS011;8742;51.716;8.790;2023-08-06T15:00:20;4.00;;;2.27;;
17251;SDS011;8742;51.716;8.790;2023-08-06T15:02:47;7.07;;;2.30;;
17251;SDS011;8742;51.716;8.790;2023-08-06T15:05:17;5.80;;;2.23;;
17251;SDS011;8742;51.716;8.790;2023-08-06T15:07:54;4.07;;;2.43;;
17251;SDS011;8742;51.716;8.790;2023-08-06T15:10:21;3.23;;;2.33;;
17251;SDS011;8742;51.716;8.790;2023-08-06T15:12:50;2.43;;;2.10;;
17251;SDS011;8742;51.716;8.790;2023-08-06T15:15:20;3.43;;;2.47;;
17251;SDS011;8742;51.716;8.790;2023-08-06T15:17:52;3.33;;;1.70;;
17251;SDS011;8742;51.716;8.790;2023-08-06T15:20:19;3.77;;;1.83;;
17251;SDS011;8742;51.716;8.790;2023-08-06T15:22:50;4.87;;;2.10;;
17251;SDS011;8742;51.716;8.790;2023-08-06T15:25:17;2.90;;;2.10;;
17251;SDS011;8742;51.716;8.790;2023-08-06T15:27:54;2.40;;;2.13;;
17251;SDS011;8742;51.716;8.790;2023-08-06T15:30:45;3.37;;;1.90;;